sensor_id;sensor_type;location;lat;lon;timestamp;temperature;humidity
13642;DHT22;6894;52.196;9.904;2024-01-06T00:01:57;7.70;99.90
13642;DHT22;6894;52.196;9.904;2024-01-06T00:04:24;7.70;1.00
13642;DHT22;6894;52.196;9.904;2024-01-06T00:06:50;7.70;1.00
13642;DHT22;6894;52.196;9.904;2024-01-06T00:09:17;7.70;1.00
13642;DHT22;6894;52.196;9.904;2024-01-06T00:11:44;7.70;1.00
13642;DHT22;6894;52.196;9.904;2024-01-06T00:14:11;7.70;1.00
13642;DHT22;6894;52.196;9.904;2024-01-06T00:16:39;7.70;1.00
13642;DHT22;6894;52.196;9.904;2024-01-06T00:19:06;7.60;1.00
13642;DHT22;6894;52.196;9.904;2024-01-06T00:21:32;7.60;72.90
13642;DHT22;6894;52.196;9.904;2024-01-06T00:23:59;7.60;1.00
13642;DHT22;6894;52.196;9.904;2024-01-06T00:26:26;7.60;1.00
13642;DHT22;6894;52.196;9.904;2024-01-06T00:28:53;7.60;1.00
13642;DHT22;6894;52.196;9.904;2024-01-06T00:31:20;7.50;18.40
13642;DHT22;6894;52.196;9.904;2024-01-06T00:33:48;7.50;1.00
13642;DHT22;6894;52.196;9.904;2024-01-06T00:36:15;7.60;1.00
13642;DHT22;6894;52.196;9.904;2024-01-06T00:38:42;7.50;1.00
13642;DHT22;6894;52.196;9.904;2024-01-06T00:41:09;7.50;1.00
13642;DHT22;6894;52.196;9.904;2024-01-06T00:43:35;7.50;1.00
13642;DHT22;6894;52.196;9.904;2024-01-06T00:46:02;7.50;99.90
13642;DHT22;6894;52.196;9.904;2024-01-06T00:48:29;7.40;1.00
13642;DHT22;6894;52.196;9.904;2024-01-06T00:50:57;7.40;99.90
13642;DHT22;6894;52.196;9.904;2024-01-06T00:53:24;7.30;1.00
13642;DHT22;6894;52.196;9.904;2024-01-06T00:55:51;7.30;99.90
13642;DHT22;6894;52.196;9.904;2024-01-06T00:58:18;7.20;1.00
13642;DHT22;6894;52.196;9.904;2024-01-06T01:00:44;7.20;1.00
13642;DHT22;6894;52.196;9.904;2024-01-06T01:03:11;7.10;1.00
13642;DHT22;6894;52.196;9.904;2024-01-06T01:05:38;7.10;99.90
13642;DHT22;6894;52.196;9.904;2024-01-06T01:08:06;7.00;99.90
13642;DHT22;6894;52.196;9.904;2024-01-06T01:10:33;7.00;1.00
13642;DHT22;6894;52.196;9.904;2024-01-06T01:13:00;6.90;1.00
13642;DHT22;6894;52.196;9.904;2024-01-06T01:15:27;7.10;1.00
13642;DHT22;6894;52.196;9.904;2024-01-06T01:17:53;7.00;1.00
13642;DHT22;6894;52.196;9.904;2024-01-06T01:20:20;6.90;34.10
13642;DHT22;6894;52.196;9.904;2024-01-06T01:22:47;6.90;99.90
13642;DHT22;6894;52.196;9.904;2024-01-06T01:25:15;6.90;99.90
13642;DHT22;6894;52.196;9.904;2024-01-06T01:27:42;6.90;1.00
13642;DHT22;6894;52.196;9.904;2024-01-06T01:30:09;6.90;1.00
13642;DHT22;6894;52.196;9.904;2024-01-06T01:32:37;6.90;1.00
13642;DHT22;6894;52.196;9.904;2024-01-06T01:35:04;6.80;1.00
13642;DHT22;6894;52.196;9.904;2024-01-06T01:37:31;6.90;1.00
13642;DHT22;6894;52.196;9.904;2024-01-06T01:39:58;6.90;1.00
13642;DHT22;6894;52.196;9.904;2024-01-06T01:42:26;6.90;1.00
13642;DHT22;6894;52.196;9.904;2024-01-06T01:44:53;6.80;13.30
13642;DHT22;6894;52.196;9.904;2024-01-06T01:47:20;6.80;99.90
13642;DHT22;6894;52.196;9.904;2024-01-06T01:49:47;6.80;99.90
13642;DHT22;6894;52.196;9.904;2024-01-06T01:52:14;6.80;99.90
13642;DHT22;6894;52.196;9.904;2024-01-06T01:54:42;6.80;99.90
13642;DHT22;6894;52.196;9.904;2024-01-06T01:57:10;6.80;99.90
13642;DHT22;6894;52.196;9.904;2024-01-06T01:59:39;6.80;99.90
13642;DHT22;6894;52.196;9.904;2024-01-06T02:02:06;6.80;99.90
13642;DHT22;6894;52.196;9.904;2024-01-06T02:04:33;6.80;99.90
13642;DHT22;6894;52.196;9.904;2024-01-06T02:07:00;6.90;99.90
13642;DHT22;6894;52.196;9.904;2024-01-06T02:09:27;6.90;99.90
13642;DHT22;6894;52.196;9.904;2024-01-06T02:11:56;6.90;74.80
13642;DHT22;6894;52.196;9.904;2024-01-06T02:14:23;6.90;77.00
13642;DHT22;6894;52.196;9.904;2024-01-06T02:16:51;6.90;1.00
13642;DHT22;6894;52.196;9.904;2024-01-06T02:19:18;6.80;16.90
13642;DHT22;6894;52.196;9.904;2024-01-06T02:21:49;6.80;55.30
13642;DHT22;6894;52.196;9.904;2024-01-06T02:24:15;6.80;1.00
13642;DHT22;6894;52.196;9.904;2024-01-06T02:26:42;6.90;1.00
13642;DHT22;6894;52.196;9.904;2024-01-06T02:29:09;6.90;1.00
13642;DHT22;6894;52.196;9.904;2024-01-06T02:31:36;6.90;1.00
13642;DHT22;6894;52.196;9.904;2024-01-06T02:34:02;6.90;1.00
13642;DHT22;6894;52.196;9.904;2024-01-06T02:36:29;7.00;1.00
13642;DHT22;6894;52.196;9.904;2024-01-06T02:38:57;7.00;1.00
13642;DHT22;6894;52.196;9.904;2024-01-06T02:41:24;7.00;1.00
13642;DHT22;6894;52.196;9.904;2024-01-06T02:43:51;7.00;99.90
13642;DHT22;6894;52.196;9.904;2024-01-06T02:46:17;7.00;99.90
13642;DHT22;6894;52.196;9.904;2024-01-06T02:48:44;7.00;99.90
13642;DHT22;6894;52.196;9.904;2024-01-06T02:51:11;7.00;1.00
13642;DHT22;6894;52.196;9.904;2024-01-06T02:53:38;7.00;58.50
13642;DHT22;6894;52.196;9.904;2024-01-06T02:56:10;7.00;99.90
13642;DHT22;6894;52.196;9.904;2024-01-06T02:58:37;7.00;99.90
13642;DHT22;6894;52.196;9.904;2024-01-06T03:01:04;7.00;99.90
13642;DHT22;6894;52.196;9.904;2024-01-06T03:03:31;7.00;1.00
13642;DHT22;6894;52.196;9.904;2024-01-06T03:05:58;6.90;1.00
13642;DHT22;6894;52.196;9.904;2024-01-06T03:08:25;6.90;1.00
13642;DHT22;6894;52.196;9.904;2024-01-06T03:10:52;6.90;1.00
13642;DHT22;6894;52.196;9.904;2024-01-06T03:13:20;6.90;1.00
13642;DHT22;6894;52.196;9.904;2024-01-06T03:15:47;6.90;1.00
13642;DHT22;6894;52.196;9.904;2024-01-06T03:18:14;6.90;1.00
13642;DHT22;6894;52.196;9.904;2024-01-06T03:20:40;6.80;1.00
13642;DHT22;6894;52.196;9.904;2024-01-06T03:23:07;6.80;1.00
13642;DHT22;6894;52.196;9.904;2024-01-06T03:25:34;6.80;1.00
13642;DHT22;6894;52.196;9.904;2024-01-06T03:28:01;6.80;68.80
13642;DHT22;6894;52.196;9.904;2024-01-06T03:30:29;6.80;99.90
13642;DHT22;6894;52.196;9.904;2024-01-06T03:32:56;6.80;99.90
13642;DHT22;6894;52.196;9.904;2024-01-06T03:35:22;6.70;99.90
13642;DHT22;6894;52.196;9.904;2024-01-06T03:37:49;6.70;99.90
13642;DHT22;6894;52.196;9.904;2024-01-06T03:40:16;6.70;99.90
13642;DHT22;6894;52.196;9.904;2024-01-06T03:42:43;6.70;1.00
13642;DHT22;6894;52.196;9.904;2024-01-06T03:45:09;6.70;1.00
13642;DHT22;6894;52.196;9.904;2024-01-06T03:47:37;7.80;1.00
13642;DHT22;6894;52.196;9.904;2024-01-06T03:50:04;6.70;1.00
13642;DHT22;6894;52.196;9.904;2024-01-06T03:52:31;6.60;1.00
13642;DHT22;6894;52.196;9.904;2024-01-06T03:54:58;6.50;1.00
13642;DHT22;6894;52.196;9.904;2024-01-06T03:57:25;6.60;1.00
13642;DHT22;6894;52.196;9.904;2024-01-06T03:59:52;6.60;1.00
13642;DHT22;6894;52.196;9.904;2024-01-06T04:02:18;6.60;1.00
13642;DHT22;6894;52.196;9.904;2024-01-06T04:04:47;6.50;1.00
13642;DHT22;6894;52.196;9.904;2024-01-06T04:07:13;6.50;1.00
13642;DHT22;6894;52.196;9.904;2024-01-06T04:09:42;6.50;99.90
13642;DHT22;6894;52.196;9.904;2024-01-06T04:12:09;6.50;99.90
13642;DHT22;6894;52.196;9.904;2024-01-06T04:14:36;6.40;99.90
13642;DHT22;6894;52.196;9.904;2024-01-06T04:17:03;6.40;1.00
13642;DHT22;6894;52.196;9.904;2024-01-06T04:19:29;6.40;1.00
13642;DHT22;6894;52.196;9.904;2024-01-06T04:21:58;6.30;1.00
13642;DHT22;6894;52.196;9.904;2024-01-06T04:24:25;6.30;1.00
13642;DHT22;6894;52.196;9.904;2024-01-06T04:26:52;6.20;1.00
13642;DHT22;6894;52.196;9.904;2024-01-06T04:29:19;6.30;1.00
13642;DHT22;6894;52.196;9.904;2024-01-06T04:31:45;6.40;1.00
13642;DHT22;6894;52.196;9.904;2024-01-06T04:34:12;6.30;1.00
13642;DHT22;6894;52.196;9.904;2024-01-06T04:36:39;6.30;1.00
13642;DHT22;6894;52.196;9.904;2024-01-06T04:39:07;6.30;1.00
13642;DHT22;6894;52.196;9.904;2024-01-06T04:41:34;6.30;1.00
13642;DHT22;6894;52.196;9.904;2024-01-06T04:44:01;6.30;1.00
13642;DHT22;6894;52.196;9.904;2024-01-06T04:46:28;6.30;1.00
13642;DHT22;6894;52.196;9.904;2024-01-06T04:48:56;6.30;1.00
13642;DHT22;6894;52.196;9.904;2024-01-06T04:51:23;6.30;1.00
13642;DHT22;6894;52.196;9.904;2024-01-06T04:53:49;6.20;1.00
13642;DHT22;6894;52.196;9.904;2024-01-06T04:56:17;6.20;1.00
13642;DHT22;6894;52.196;9.904;2024-01-06T04:58:44;6.20;20.60
13642;DHT22;6894;52.196;9.904;2024-01-06T05:01:11;6.10;64.30
13642;DHT22;6894;52.196;9.904;2024-01-06T05:03:38;6.10;64.70
13642;DHT22;6894;52.196;9.904;2024-01-06T05:06:05;6.10;96.60
13642;DHT22;6894;52.196;9.904;2024-01-06T05:08:32;6.00;99.90
13642;DHT22;6894;52.196;9.904;2024-01-06T05:10:59;6.00;99.90
13642;DHT22;6894;52.196;9.904;2024-01-06T05:13:27;6.00;99.90
13642;DHT22;6894;52.196;9.904;2024-01-06T05:15:54;6.00;99.90
13642;DHT22;6894;52.196;9.904;2024-01-06T05:18:21;5.90;99.90
13642;DHT22;6894;52.196;9.904;2024-01-06T05:20:48;5.90;99.90
13642;DHT22;6894;52.196;9.904;2024-01-06T05:23:14;5.90;99.90
13642;DHT22;6894;52.196;9.904;2024-01-06T05:25:41;5.90;99.90
13642;DHT22;6894;52.196;9.904;2024-01-06T05:28:08;5.80;99.90
13642;DHT22;6894;52.196;9.904;2024-01-06T05:30:36;5.90;99.90
13642;DHT22;6894;52.196;9.904;2024-01-06T05:33:04;5.80;1.00
13642;DHT22;6894;52.196;9.904;2024-01-06T05:35:30;5.80;1.00
13642;DHT22;6894;52.196;9.904;2024-01-06T05:37:57;5.90;1.00
13642;DHT22;6894;52.196;9.904;2024-01-06T05:40:24;5.90;1.00
13642;DHT22;6894;52.196;9.904;2024-01-06T05:42:51;5.90;1.00
13642;DHT22;6894;52.196;9.904;2024-01-06T05:45:20;5.90;1.00
13642;DHT22;6894;52.196;9.904;2024-01-06T05:47:49;5.80;1.00
13642;DHT22;6894;52.196;9.904;2024-01-06T05:50:16;5.90;1.00
13642;DHT22;6894;52.196;9.904;2024-01-06T05:52:43;5.90;1.00
13642;DHT22;6894;52.196;9.904;2024-01-06T05:55:09;5.80;1.00
13642;DHT22;6894;52.196;9.904;2024-01-06T05:57:36;5.80;1.00
13642;DHT22;6894;52.196;9.904;2024-01-06T06:00:06;5.80;1.00
13642;DHT22;6894;52.196;9.904;2024-01-06T06:02:34;5.80;1.00
13642;DHT22;6894;52.196;9.904;2024-01-06T06:05:02;5.70;1.00
13642;DHT22;6894;52.196;9.904;2024-01-06T06:07:29;5.70;1.00
13642;DHT22;6894;52.196;9.904;2024-01-06T06:09:56;5.80;1.00
13642;DHT22;6894;52.196;9.904;2024-01-06T06:12:22;5.70;1.00
13642;DHT22;6894;52.196;9.904;2024-01-06T06:14:49;5.70;1.00
13642;DHT22;6894;52.196;9.904;2024-01-06T06:17:16;5.70;1.00
13642;DHT22;6894;52.196;9.904;2024-01-06T06:19:43;5.80;1.00
13642;DHT22;6894;52.196;9.904;2024-01-06T06:22:11;5.80;1.00
13642;DHT22;6894;52.196;9.904;2024-01-06T06:24:37;5.70;1.00
13642;DHT22;6894;52.196;9.904;2024-01-06T06:27:04;5.70;1.00
13642;DHT22;6894;52.196;9.904;2024-01-06T06:29:31;5.70;1.00
13642;DHT22;6894;52.196;9.904;2024-01-06T06:31:58;5.60;1.00
13642;DHT22;6894;52.196;9.904;2024-01-06T06:34:25;5.70;1.00
13642;DHT22;6894;52.196;9.904;2024-01-06T06:36:51;5.60;1.00
13642;DHT22;6894;52.196;9.904;2024-01-06T06:39:20;5.60;1.00
13642;DHT22;6894;52.196;9.904;2024-01-06T06:41:46;5.50;1.00
13642;DHT22;6894;52.196;9.904;2024-01-06T06:44:13;5.60;1.00
13642;DHT22;6894;52.196;9.904;2024-01-06T06:46:40;5.50;1.00
13642;DHT22;6894;52.196;9.904;2024-01-06T06:49:06;5.50;1.00
13642;DHT22;6894;52.196;9.904;2024-01-06T06:51:33;5.50;1.00
13642;DHT22;6894;52.196;9.904;2024-01-06T06:54:00;5.60;1.00
13642;DHT22;6894;52.196;9.904;2024-01-06T06:56:28;5.50;1.00
13642;DHT22;6894;52.196;9.904;2024-01-06T06:58:55;5.40;1.00
13642;DHT22;6894;52.196;9.904;2024-01-06T07:01:22;5.40;1.00
13642;DHT22;6894;52.196;9.904;2024-01-06T07:03:48;5.50;1.00
13642;DHT22;6894;52.196;9.904;2024-01-06T07:06:15;5.40;1.00
13642;DHT22;6894;52.196;9.904;2024-01-06T07:08:41;5.40;4.40
13642;DHT22;6894;52.196;9.904;2024-01-06T07:11:08;5.40;12.80
13642;DHT22;6894;52.196;9.904;2024-01-06T07:13:38;5.30;28.00
13642;DHT22;6894;52.196;9.904;2024-01-06T07:16:05;5.40;25.30
13642;DHT22;6894;52.196;9.904;2024-01-06T07:18:32;5.30;26.80
13642;DHT22;6894;52.196;9.904;2024-01-06T07:20:59;5.30;39.60
13642;DHT22;6894;52.196;9.904;2024-01-06T07:23:26;5.30;54.80
13642;DHT22;6894;52.196;9.904;2024-01-06T07:25:52;5.30;70.60
13642;DHT22;6894;52.196;9.904;2024-01-06T07:28:21;5.20;92.10
13642;DHT22;6894;52.196;9.904;2024-01-06T07:30:49;5.30;95.90
13642;DHT22;6894;52.196;9.904;2024-01-06T07:33:16;5.30;99.90
13642;DHT22;6894;52.196;9.904;2024-01-06T07:35:43;5.20;99.90
13642;DHT22;6894;52.196;9.904;2024-01-06T07:38:11;5.30;99.90
13642;DHT22;6894;52.196;9.904;2024-01-06T07:40:38;5.30;99.90
13642;DHT22;6894;52.196;9.904;2024-01-06T07:43:06;5.10;99.90
13642;DHT22;6894;52.196;9.904;2024-01-06T07:45:32;5.10;99.90
13642;DHT22;6894;52.196;9.904;2024-01-06T07:48:02;5.10;99.90
13642;DHT22;6894;52.196;9.904;2024-01-06T07:50:29;5.10;99.90
13642;DHT22;6894;52.196;9.904;2024-01-06T07:52:55;5.10;99.90
13642;DHT22;6894;52.196;9.904;2024-01-06T07:55:23;5.00;99.90
13642;DHT22;6894;52.196;9.904;2024-01-06T07:57:52;5.10;99.90
13642;DHT22;6894;52.196;9.904;2024-01-06T08:00:19;5.00;99.90
13642;DHT22;6894;52.196;9.904;2024-01-06T08:02:45;5.00;99.90
13642;DHT22;6894;52.196;9.904;2024-01-06T08:05:14;4.90;99.90
13642;DHT22;6894;52.196;9.904;2024-01-06T08:07:41;5.00;99.90
13642;DHT22;6894;52.196;9.904;2024-01-06T08:10:08;4.90;99.90
13642;DHT22;6894;52.196;9.904;2024-01-06T08:12:35;5.00;99.90
13642;DHT22;6894;52.196;9.904;2024-01-06T08:15:03;5.00;99.90
13642;DHT22;6894;52.196;9.904;2024-01-06T08:17:30;5.00;99.90
13642;DHT22;6894;52.196;9.904;2024-01-06T08:19:57;5.00;99.90
13642;DHT22;6894;52.196;9.904;2024-01-06T08:22:25;5.00;99.90
13642;DHT22;6894;52.196;9.904;2024-01-06T08:24:51;5.00;99.90
13642;DHT22;6894;52.196;9.904;2024-01-06T08:27:18;4.90;99.90
13642;DHT22;6894;52.196;9.904;2024-01-06T08:29:46;4.90;99.90
13642;DHT22;6894;52.196;9.904;2024-01-06T08:32:13;4.90;99.90
13642;DHT22;6894;52.196;9.904;2024-01-06T08:34:40;4.80;99.90
13642;DHT22;6894;52.196;9.904;2024-01-06T08:37:07;4.80;99.90
13642;DHT22;6894;52.196;9.904;2024-01-06T08:39:35;4.80;99.90
13642;DHT22;6894;52.196;9.904;2024-01-06T08:42:02;4.80;99.90
13642;DHT22;6894;52.196;9.904;2024-01-06T08:44:29;4.80;99.90
13642;DHT22;6894;52.196;9.904;2024-01-06T08:46:55;4.80;99.90
13642;DHT22;6894;52.196;9.904;2024-01-06T08:49:22;4.80;99.90
13642;DHT22;6894;52.196;9.904;2024-01-06T08:51:49;4.90;99.90
13642;DHT22;6894;52.196;9.904;2024-01-06T08:54:16;4.80;99.90
13642;DHT22;6894;52.196;9.904;2024-01-06T08:56:44;4.80;99.90
13642;DHT22;6894;52.196;9.904;2024-01-06T08:59:11;4.80;99.90
13642;DHT22;6894;52.196;9.904;2024-01-06T09:01:38;4.80;99.90
13642;DHT22;6894;52.196;9.904;2024-01-06T09:04:05;4.80;99.90
13642;DHT22;6894;52.196;9.904;2024-01-06T09:06:32;4.80;99.90
13642;DHT22;6894;52.196;9.904;2024-01-06T09:08:58;4.70;99.90
13642;DHT22;6894;52.196;9.904;2024-01-06T09:11:25;4.70;99.90
13642;DHT22;6894;52.196;9.904;2024-01-06T09:13:53;4.70;99.90
13642;DHT22;6894;52.196;9.904;2024-01-06T09:16:20;4.70;99.90
13642;DHT22;6894;52.196;9.904;2024-01-06T09:18:47;4.70;99.90
13642;DHT22;6894;52.196;9.904;2024-01-06T09:21:14;4.70;99.90
13642;DHT22;6894;52.196;9.904;2024-01-06T09:23:41;4.70;99.90
13642;DHT22;6894;52.196;9.904;2024-01-06T09:26:08;4.70;99.90
13642;DHT22;6894;52.196;9.904;2024-01-06T09:28:35;4.60;99.90
13642;DHT22;6894;52.196;9.904;2024-01-06T09:31:04;4.60;99.90
13642;DHT22;6894;52.196;9.904;2024-01-06T09:33:30;4.80;99.90
13642;DHT22;6894;52.196;9.904;2024-01-06T09:35:59;4.70;1.00
13642;DHT22;6894;52.196;9.904;2024-01-06T09:38:26;4.70;1.00
13642;DHT22;6894;52.196;9.904;2024-01-06T09:40:53;4.70;1.00
13642;DHT22;6894;52.196;9.904;2024-01-06T09:43:20;4.70;1.00
13642;DHT22;6894;52.196;9.904;2024-01-06T09:45:53;4.70;1.00
13642;DHT22;6894;52.196;9.904;2024-01-06T09:48:29;4.70;1.00
13642;DHT22;6894;52.196;9.904;2024-01-06T09:50:56;4.70;1.00
13642;DHT22;6894;52.196;9.904;2024-01-06T09:53:28;4.70;1.00
13642;DHT22;6894;52.196;9.904;2024-01-06T09:55:56;4.70;1.00
13642;DHT22;6894;52.196;9.904;2024-01-06T09:58:23;4.80;1.00
13642;DHT22;6894;52.196;9.904;2024-01-06T10:00:55;4.70;1.00
13642;DHT22;6894;52.196;9.904;2024-01-06T10:03:23;4.80;1.00
13642;DHT22;6894;52.196;9.904;2024-01-06T10:05:51;4.70;1.00
13642;DHT22;6894;52.196;9.904;2024-01-06T10:08:18;4.70;1.00
13642;DHT22;6894;52.196;9.904;2024-01-06T10:10:45;4.70;1.00
13642;DHT22;6894;52.196;9.904;2024-01-06T10:13:16;4.70;1.00
13642;DHT22;6894;52.196;9.904;2024-01-06T10:15:43;4.70;1.00
13642;DHT22;6894;52.196;9.904;2024-01-06T10:18:10;4.70;1.00
13642;DHT22;6894;52.196;9.904;2024-01-06T10:20:38;4.70;1.00
13642;DHT22;6894;52.196;9.904;2024-01-06T10:23:06;4.80;1.00
13642;DHT22;6894;52.196;9.904;2024-01-06T10:25:32;4.70;1.00
13642;DHT22;6894;52.196;9.904;2024-01-06T10:28:00;4.80;1.00
13642;DHT22;6894;52.196;9.904;2024-01-06T10:30:28;4.80;1.00
13642;DHT22;6894;52.196;9.904;2024-01-06T10:32:55;4.90;1.00
13642;DHT22;6894;52.196;9.904;2024-01-06T10:35:24;4.80;1.00
13642;DHT22;6894;52.196;9.904;2024-01-06T10:37:53;4.90;1.00
13642;DHT22;6894;52.196;9.904;2024-01-06T10:40:20;4.80;1.00
13642;DHT22;6894;52.196;9.904;2024-01-06T10:42:47;4.80;1.00
13642;DHT22;6894;52.196;9.904;2024-01-06T10:45:14;4.80;1.00
13642;DHT22;6894;52.196;9.904;2024-01-06T10:47:42;4.90;1.00
13642;DHT22;6894;52.196;9.904;2024-01-06T10:50:10;4.70;1.00
13642;DHT22;6894;52.196;9.904;2024-01-06T10:52:38;4.80;1.00
13642;DHT22;6894;52.196;9.904;2024-01-06T10:55:08;4.70;1.00
13642;DHT22;6894;52.196;9.904;2024-01-06T10:57:36;4.70;1.00
13642;DHT22;6894;52.196;9.904;2024-01-06T11:00:05;4.70;1.00
13642;DHT22;6894;52.196;9.904;2024-01-06T11:02:32;4.70;1.00
13642;DHT22;6894;52.196;9.904;2024-01-06T11:05:00;4.70;1.00
13642;DHT22;6894;52.196;9.904;2024-01-06T11:07:27;4.70;1.00
13642;DHT22;6894;52.196;9.904;2024-01-06T11:09:57;4.80;1.00
13642;DHT22;6894;52.196;9.904;2024-01-06T11:12:26;4.70;1.00
13642;DHT22;6894;52.196;9.904;2024-01-06T11:14:52;4.70;1.00
13642;DHT22;6894;52.196;9.904;2024-01-06T11:17:51;4.70;1.00
13642;DHT22;6894;52.196;9.904;2024-01-06T11:20:23;4.70;1.00
13642;DHT22;6894;52.196;9.904;2024-01-06T11:22:52;4.70;1.00
13642;DHT22;6894;52.196;9.904;2024-01-06T11:25:21;4.80;1.00
13642;DHT22;6894;52.196;9.904;2024-01-06T11:27:50;4.70;1.00
13642;DHT22;6894;52.196;9.904;2024-01-06T11:30:24;4.70;1.00
13642;DHT22;6894;52.196;9.904;2024-01-06T11:32:51;4.70;1.00
13642;DHT22;6894;52.196;9.904;2024-01-06T11:35:20;4.70;1.00
13642;DHT22;6894;52.196;9.904;2024-01-06T11:37:56;4.60;1.00
13642;DHT22;6894;52.196;9.904;2024-01-06T11:40:25;4.70;1.00
13642;DHT22;6894;52.196;9.904;2024-01-06T11:43:01;4.60;1.00
13642;DHT22;6894;52.196;9.904;2024-01-06T11:45:29;4.70;1.00
13642;DHT22;6894;52.196;9.904;2024-01-06T11:47:57;4.60;1.00
13642;DHT22;6894;52.196;9.904;2024-01-06T11:50:24;4.60;1.00
13642;DHT22;6894;52.196;9.904;2024-01-06T11:52:51;4.60;1.00
13642;DHT22;6894;52.196;9.904;2024-01-06T11:55:18;4.60;1.00
13642;DHT22;6894;52.196;9.904;2024-01-06T11:57:45;4.50;1.00
13642;DHT22;6894;52.196;9.904;2024-01-06T12:00:14;4.50;1.00
13642;DHT22;6894;52.196;9.904;2024-01-06T12:02:41;4.50;1.00
13642;DHT22;6894;52.196;9.904;2024-01-06T12:05:12;4.50;1.00
13642;DHT22;6894;52.196;9.904;2024-01-06T12:07:40;4.40;1.00
13642;DHT22;6894;52.196;9.904;2024-01-06T12:10:08;4.50;1.00
13642;DHT22;6894;52.196;9.904;2024-01-06T12:12:35;4.40;1.00
13642;DHT22;6894;52.196;9.904;2024-01-06T12:15:03;4.40;1.00
13642;DHT22;6894;52.196;9.904;2024-01-06T12:17:31;4.40;1.00
13642;DHT22;6894;52.196;9.904;2024-01-06T12:19:58;4.40;1.00
13642;DHT22;6894;52.196;9.904;2024-01-06T12:22:26;4.30;1.00
13642;DHT22;6894;52.196;9.904;2024-01-06T12:24:53;4.30;1.00
13642;DHT22;6894;52.196;9.904;2024-01-06T12:27:20;4.30;1.00
13642;DHT22;6894;52.196;9.904;2024-01-06T12:29:47;4.40;1.00
13642;DHT22;6894;52.196;9.904;2024-01-06T12:32:13;4.30;1.00
13642;DHT22;6894;52.196;9.904;2024-01-06T12:34:42;4.30;1.00
13642;DHT22;6894;52.196;9.904;2024-01-06T12:37:08;4.30;1.00
13642;DHT22;6894;52.196;9.904;2024-01-06T12:39:35;4.20;1.00
13642;DHT22;6894;52.196;9.904;2024-01-06T12:42:04;4.60;1.00
13642;DHT22;6894;52.196;9.904;2024-01-06T12:44:31;4.10;1.00
13642;DHT22;6894;52.196;9.904;2024-01-06T12:47:02;4.10;1.00
13642;DHT22;6894;52.196;9.904;2024-01-06T12:49:29;4.10;1.00
13642;DHT22;6894;52.196;9.904;2024-01-06T12:51:57;4.10;1.00
13642;DHT22;6894;52.196;9.904;2024-01-06T12:54:24;4.10;1.00
13642;DHT22;6894;52.196;9.904;2024-01-06T12:56:51;4.00;1.00
13642;DHT22;6894;52.196;9.904;2024-01-06T12:59:17;4.00;1.00
13642;DHT22;6894;52.196;9.904;2024-01-06T13:01:45;4.00;1.00
13642;DHT22;6894;52.196;9.904;2024-01-06T13:04:12;4.10;1.00
13642;DHT22;6894;52.196;9.904;2024-01-06T13:06:39;3.90;1.00
13642;DHT22;6894;52.196;9.904;2024-01-06T13:09:07;3.90;1.00
13642;DHT22;6894;52.196;9.904;2024-01-06T13:11:35;3.90;1.00
13642;DHT22;6894;52.196;9.904;2024-01-06T13:14:02;3.90;1.00
13642;DHT22;6894;52.196;9.904;2024-01-06T13:16:29;3.90;1.00
13642;DHT22;6894;52.196;9.904;2024-01-06T13:18:56;3.80;1.00
13642;DHT22;6894;52.196;9.904;2024-01-06T13:21:22;3.80;1.00
13642;DHT22;6894;52.196;9.904;2024-01-06T13:23:49;3.80;1.00
13642;DHT22;6894;52.196;9.904;2024-01-06T13:26:18;3.80;1.00
13642;DHT22;6894;52.196;9.904;2024-01-06T13:28:44;3.80;1.00
13642;DHT22;6894;52.196;9.904;2024-01-06T13:31:11;3.80;1.00
13642;DHT22;6894;52.196;9.904;2024-01-06T13:33:38;3.80;1.00
13642;DHT22;6894;52.196;9.904;2024-01-06T13:36:05;3.70;1.00
13642;DHT22;6894;52.196;9.904;2024-01-06T13:38:32;3.70;1.00
13642;DHT22;6894;52.196;9.904;2024-01-06T13:40:59;3.60;1.00
13642;DHT22;6894;52.196;9.904;2024-01-06T13:43:27;3.60;1.00
13642;DHT22;6894;52.196;9.904;2024-01-06T13:45:54;3.60;1.00
13642;DHT22;6894;52.196;9.904;2024-01-06T13:48:21;3.60;1.00
13642;DHT22;6894;52.196;9.904;2024-01-06T13:50:48;3.60;1.00
13642;DHT22;6894;52.196;9.904;2024-01-06T13:53:15;3.60;1.00
13642;DHT22;6894;52.196;9.904;2024-01-06T13:55:42;3.60;1.00
13642;DHT22;6894;52.196;9.904;2024-01-06T13:58:09;3.50;1.00
13642;DHT22;6894;52.196;9.904;2024-01-06T14:00:37;3.50;1.00
13642;DHT22;6894;52.196;9.904;2024-01-06T14:03:05;3.60;1.00
13642;DHT22;6894;52.196;9.904;2024-01-06T14:05:33;3.60;1.00
13642;DHT22;6894;52.196;9.904;2024-01-06T14:08:00;3.60;1.00
13642;DHT22;6894;52.196;9.904;2024-01-06T14:10:27;3.50;1.00
13642;DHT22;6894;52.196;9.904;2024-01-06T14:12:55;3.50;1.00
13642;DHT22;6894;52.196;9.904;2024-01-06T14:15:22;3.50;1.00
13642;DHT22;6894;52.196;9.904;2024-01-06T14:17:50;3.40;1.00
13642;DHT22;6894;52.196;9.904;2024-01-06T14:20:17;3.40;1.00
13642;DHT22;6894;52.196;9.904;2024-01-06T14:22:44;3.40;1.00
13642;DHT22;6894;52.196;9.904;2024-01-06T14:25:11;3.40;1.00
13642;DHT22;6894;52.196;9.904;2024-01-06T14:27:38;3.30;1.00
13642;DHT22;6894;52.196;9.904;2024-01-06T14:30:06;3.30;1.00
13642;DHT22;6894;52.196;9.904;2024-01-06T14:32:35;3.30;1.00
13642;DHT22;6894;52.196;9.904;2024-01-06T14:35:04;3.30;1.00
13642;DHT22;6894;52.196;9.904;2024-01-06T14:37:32;3.20;1.00
13642;DHT22;6894;52.196;9.904;2024-01-06T14:39:58;3.20;1.00
13642;DHT22;6894;52.196;9.904;2024-01-06T14:42:30;3.10;1.00
13642;DHT22;6894;52.196;9.904;2024-01-06T14:44:57;3.20;1.00
13642;DHT22;6894;52.196;9.904;2024-01-06T14:47:24;3.20;1.00
13642;DHT22;6894;52.196;9.904;2024-01-06T14:49:50;4.10;1.00
13642;DHT22;6894;52.196;9.904;2024-01-06T14:52:19;3.20;1.00
13642;DHT22;6894;52.196;9.904;2024-01-06T14:54:45;3.10;1.00
13642;DHT22;6894;52.196;9.904;2024-01-06T14:57:14;3.10;1.00
13642;DHT22;6894;52.196;9.904;2024-01-06T14:59:41;3.00;1.00
13642;DHT22;6894;52.196;9.904;2024-01-06T15:02:08;3.10;1.00
13642;DHT22;6894;52.196;9.904;2024-01-06T15:04:37;3.00;1.00
13642;DHT22;6894;52.196;9.904;2024-01-06T15:07:04;3.00;1.00
13642;DHT22;6894;52.196;9.904;2024-01-06T15:09:32;2.90;1.00
13642;DHT22;6894;52.196;9.904;2024-01-06T15:11:59;2.90;1.00
13642;DHT22;6894;52.196;9.904;2024-01-06T15:14:25;2.80;1.00
13642;DHT22;6894;52.196;9.904;2024-01-06T15:16:52;2.80;1.00
13642;DHT22;6894;52.196;9.904;2024-01-06T15:19:19;2.80;1.00
13642;DHT22;6894;52.196;9.904;2024-01-06T15:21:48;2.70;1.00
13642;DHT22;6894;52.196;9.904;2024-01-06T15:24:15;2.70;1.00
13642;DHT22;6894;52.196;9.904;2024-01-06T15:26:44;2.60;1.00
13642;DHT22;6894;52.196;9.904;2024-01-06T15:29:11;2.50;1.00
13642;DHT22;6894;52.196;9.904;2024-01-06T15:31:38;2.50;1.00
13642;DHT22;6894;52.196;9.904;2024-01-06T15:34:04;2.60;1.00
13642;DHT22;6894;52.196;9.904;2024-01-06T15:36:31;2.40;1.00
13642;DHT22;6894;52.196;9.904;2024-01-06T15:38:58;2.50;1.00
13642;DHT22;6894;52.196;9.904;2024-01-06T15:41:25;2.50;1.00
13642;DHT22;6894;52.196;9.904;2024-01-06T15:43:53;2.40;1.00
13642;DHT22;6894;52.196;9.904;2024-01-06T15:46:20;2.40;1.00
13642;DHT22;6894;52.196;9.904;2024-01-06T15:48:47;2.40;1.00
13642;DHT22;6894;52.196;9.904;2024-01-06T15:51:14;2.50;1.00
13642;DHT22;6894;52.196;9.904;2024-01-06T15:53:41;2.40;1.00
13642;DHT22;6894;52.196;9.904;2024-01-06T15:56:07;2.40;1.00
13642;DHT22;6894;52.196;9.904;2024-01-06T15:58:34;2.40;1.00
13642;DHT22;6894;52.196;9.904;2024-01-06T16:01:03;2.40;1.00
13642;DHT22;6894;52.196;9.904;2024-01-06T16:03:31;2.40;1.00
13642;DHT22;6894;52.196;9.904;2024-01-06T16:05:58;2.40;1.00
13642;DHT22;6894;52.196;9.904;2024-01-06T16:08:25;2.40;1.00
13642;DHT22;6894;52.196;9.904;2024-01-06T16:10:52;2.50;1.00
13642;DHT22;6894;52.196;9.904;2024-01-06T16:13:19;2.50;1.00